Time;durP1;ratioP1;P1;durP2;ratioP2;P2;SDS_P1;SDS_P2;PMS_P1;PMS_P2;Temp;Humidity;BMP_temperature;BMP_pressure;BME280_temperature;BME280_humidity;BME280_pressure;Samples;Min_cycle;Max_cycle;Signal;HPM_P1;HPM_P2
2024/01/22 00:00:00;;;;;;;2.95;1.73;;;21.30;61.10;;;;;;4962602;28;20211;-81
2024/01/22 00:02:26;;;;;;;2.22;1.50;;;21.30;61.00;;;;;;4962709;28;20667;-80
2024/01/22 00:04:54;;;;;;;2.38;1.83;;;21.30;61.10;;;;;;4965049;28;20212;-81
2024/01/22 00:07:21;;;;;;;3.03;1.80;;;21.30;61.20;;;;;;4967062;28;20564;-80
2024/01/22 00:09:48;;;;;;;4.32;2.28;;;21.30;62.10;;;;;;4962817;28;20192;-79
2024/01/22 00:12:14;;;;;;;1.83;1.63;;;21.30;61.40;;;;;;4967118;28;20291;-80
2024/01/22 00:14:41;;;;;;;2.67;2.42;;;21.30;61.50;;;;;;4965975;28;20204;-81
2024/01/22 00:17:08;;;;;;;3.50;1.88;;;21.30;61.40;;;;;;4965212;28;20210;-81
2024/01/22 00:19:35;;;;;;;2.35;1.70;;;21.30;61.40;;;;;;4964680;28;20300;-82
2024/01/22 00:22:03;;;;;;;2.95;2.20;;;21.30;61.40;;;;;;4967536;28;20205;-81
2024/01/22 00:24:29;;;;;;;3.13;1.73;;;21.30;61.50;;;;;;4967665;28;20200;-86
2024/01/22 00:26:56;;;;;;;4.60;1.50;;;21.30;61.60;;;;;;4964843;28;20252;-82
2024/01/22 00:29:23;;;;;;;2.97;1.80;;;21.30;61.30;;;;;;4969773;28;20201;-81
2024/01/22 00:31:49;;;;;;;2.95;1.63;;;21.30;61.50;;;;;;4969089;28;20711;-82
2024/01/22 00:34:16;;;;;;;1.90;1.42;;;21.30;61.50;;;;;;4969615;28;20206;-82
2024/01/22 00:36:43;;;;;;;3.05;1.90;;;21.30;61.50;;;;;;4968891;28;20201;-80
2024/01/22 00:39:11;;;;;;;2.10;1.90;;;21.30;61.50;;;;;;4966380;28;20201;-81
2024/01/22 00:41:38;;;;;;;2.65;1.88;;;21.30;61.50;;;;;;4965137;28;20216;-82
2024/01/22 00:44:05;;;;;;;2.65;1.60;;;21.30;61.40;;;;;;4969097;28;20197;-81
2024/01/22 00:46:31;;;;;;;5.50;1.70;;;21.30;61.40;;;;;;4964600;28;20201;-82
2024/01/22 00:48:58;;;;;;;8.87;1.40;;;21.30;61.40;;;;;;4968841;28;20212;-82
2024/01/22 00:51:25;;;;;;;1.98;1.60;;;21.30;61.30;;;;;;4965488;28;20511;-82
2024/01/22 00:53:51;;;;;;;3.67;1.80;;;21.20;61.20;;;;;;4967830;28;20205;-82
2024/01/22 00:56:19;;;;;;;2.55;1.50;;;21.20;61.20;;;;;;4961299;28;20475;-81
2024/01/22 00:58:47;;;;;;;1.77;1.60;;;21.20;61.20;;;;;;4968743;28;20207;-81
2024/01/22 01:01:14;;;;;;;2.55;1.80;;;21.20;61.20;;;;;;4971818;28;20846;-82
2024/01/22 01:03:40;;;;;;;2.25;1.50;;;21.20;61.10;;;;;;4968348;28;20227;-81
2024/01/22 01:06:07;;;;;;;2.10;1.65;;;21.20;61.00;;;;;;4966157;28;20214;-82
2024/01/22 01:08:34;;;;;;;2.20;1.65;;;21.20;61.10;;;;;;4970375;28;20213;-81
2024/01/22 01:11:01;;;;;;;2.00;1.70;;;21.20;61.10;;;;;;4963241;28;20681;-82
2024/01/22 01:13:29;;;;;;;1.92;1.73;;;21.20;61.10;;;;;;4967166;28;20317;-82
2024/01/22 01:15:56;;;;;;;1.70;1.23;;;21.20;61.00;;;;;;4969317;28;20206;-81
2024/01/22 01:18:23;;;;;;;4.07;1.85;;;21.20;61.10;;;;;;4969756;28;20660;-81
2024/01/22 01:20:49;;;;;;;2.55;2.00;;;21.20;61.10;;;;;;4965938;28;20207;-82
2024/01/22 01:23:16;;;;;;;3.75;1.65;;;21.20;61.10;;;;;;4968807;28;20212;-81
2024/01/22 01:25:43;;;;;;;1.83;1.38;;;21.20;61.00;;;;;;4973281;28;20233;-82
2024/01/22 01:28:09;;;;;;;2.10;1.70;;;21.20;61.00;;;;;;4972592;28;20589;-82
2024/01/22 01:30:38;;;;;;;4.18;1.75;;;21.10;60.90;;;;;;4970521;28;20225;-82
2024/01/22 01:33:05;;;;;;;2.40;1.55;;;21.10;60.90;;;;;;4970632;28;20209;-82
2024/01/22 01:35:32;;;;;;;3.28;1.60;;;21.10;60.90;;;;;;4971986;28;20202;-82
2024/01/22 01:37:58;;;;;;;1.43;1.30;;;21.10;60.90;;;;;;4969712;28;20583;-82
2024/01/22 01:40:25;;;;;;;5.05;1.30;;;21.10;60.90;;;;;;4964141;28;20479;-82
2024/01/22 01:42:52;;;;;;;1.60;1.50;;;21.10;60.90;;;;;;4969636;28;20212;-81
2024/01/22 01:45:18;;;;;;;1.45;1.27;;;21.10;60.90;;;;;;4964779;28;20889;-82
2024/01/22 01:47:48;;;;;;;1.80;1.60;;;21.10;60.90;;;;;;4961947;28;20872;-81
2024/01/22 01:50:15;;;;;;;2.00;1.60;;;21.10;60.90;;;;;;4967188;28;20228;-82
2024/01/22 01:52:43;;;;;;;4.38;1.80;;;21.10;60.90;;;;;;4962974;28;20252;-82
2024/01/22 01:55:10;;;;;;;3.08;2.05;;;21.10;60.90;;;;;;4965749;28;20208;-82
2024/01/22 01:57:39;;;;;;;2.33;1.50;;;21.10;60.90;;;;;;4968897;28;20205;-82
2024/01/22 02:00:07;;;;;;;5.53;1.60;;;21.10;60.90;;;;;;4965278;28;20209;-81
2024/01/22 02:02:34;;;;;;;2.55;1.50;;;21.10;60.90;;;;;;4964361;28;20193;-81
2024/01/22 02:05:04;;;;;;;2.20;1.80;;;21.00;60.90;;;;;;4967405;28;20213;-82
2024/01/22 02:07:31;;;;;;;2.42;1.90;;;21.00;60.80;;;;;;4966093;28;20216;-81
2024/01/22 02:09:57;;;;;;;1.75;1.23;;;21.00;60.80;;;;;;4968999;28;20201;-82
2024/01/22 02:12:24;;;;;;;1.55;1.45;;;21.00;61.40;;;;;;4966548;28;20213;-83
2024/01/22 02:14:51;;;;;;;5.68;1.65;;;21.00;60.70;;;;;;4970024;28;20217;-82
2024/01/22 02:17:18;;;;;;;3.30;2.40;;;21.00;60.70;;;;;;4961181;28;20209;-83
2024/01/22 02:19:44;;;;;;;2.88;1.30;;;21.00;60.70;;;;;;4965996;28;20202;-82
2024/01/22 02:22:13;;;;;;;3.85;1.95;;;21.00;60.80;;;;;;4967061;28;20210;-82
2024/01/22 02:24:41;;;;;;;3.15;1.77;;;21.00;60.80;;;;;;4965384;28;20203;-82
2024/01/22 02:27:07;;;;;;;2.17;1.40;;;21.00;60.70;;;;;;4965086;28;20190;-82
2024/01/22 02:29:34;;;;;;;2.75;1.60;;;21.00;60.70;;;;;;4965371;28;20205;-82
2024/01/22 02:32:01;;;;;;;3.35;1.55;;;21.00;60.70;;;;;;4967990;28;20888;-82
2024/01/22 02:34:28;;;;;;;1.52;1.35;;;21.00;60.80;;;;;;4964905;28;20205;-82
2024/01/22 02:36:54;;;;;;;2.55;1.60;;;21.00;60.80;;;;;;4965186;28;20912;-82
2024/01/22 02:39:21;;;;;;;1.90;1.55;;;21.00;60.70;;;;;;4965438;28;20205;-82
2024/01/22 02:41:49;;;;;;;2.78;1.73;;;20.90;60.60;;;;;;4964455;28;20545;-82
2024/01/22 02:44:16;;;;;;;4.18;2.13;;;20.90;60.60;;;;;;4965256;28;20201;-82
2024/01/22 02:46:42;;;;;;;1.63;1.52;;;20.90;60.60;;;;;;4965208;28;20685;-82
2024/01/22 02:49:10;;;;;;;2.70;1.35;;;20.90;60.60;;;;;;4963720;28;20201;-82
2024/01/22 02:51:37;;;;;;;3.03;1.70;;;20.90;60.70;;;;;;4963192;28;20223;-81
2024/01/22 02:54:05;;;;;;;1.50;1.27;;;20.90;60.70;;;;;;4964805;28;20460;-82
2024/01/22 02:56:32;;;;;;;2.25;1.67;;;20.90;60.60;;;;;;4965241;28;20210;-81
2024/01/22 02:59:00;;;;;;;1.63;1.27;;;20.90;60.70;;;;;;4964605;28;20205;-81
2024/01/22 03:01:26;;;;;;;2.90;1.73;;;20.90;60.70;;;;;;4961799;28;20201;-82
2024/01/22 03:03:53;;;;;;;1.85;1.63;;;20.90;60.70;;;;;;4964689;28;20464;-82
2024/01/22 03:06:20;;;;;;;2.22;1.98;;;20.90;60.70;;;;;;4967328;28;20209;-82
2024/01/22 03:08:46;;;;;;;1.60;1.33;;;20.90;60.70;;;;;;4961747;28;20209;-81
2024/01/22 03:11:13;;;;;;;1.83;1.25;;;20.90;60.60;;;;;;4963530;28;20703;-81
2024/01/22 03:13:40;;;;;;;4.32;1.90;;;20.90;60.70;;;;;;4965296;28;20197;-81
2024/01/22 03:16:08;;;;;;;2.33;1.73;;;20.90;60.70;;;;;;4969249;28;20229;-82
2024/01/22 03:18:35;;;;;;;2.08;1.35;;;20.90;60.80;;;;;;4962075;28;20576;-81
2024/01/22 03:21:03;;;;;;;1.70;1.30;;;20.90;60.70;;;;;;4966971;28;20206;-82
2024/01/22 03:23:30;;;;;;;2.08;1.42;;;20.90;60.70;;;;;;4962674;28;21047;-81
2024/01/22 03:25:57;;;;;;;1.90;1.70;;;20.80;60.60;;;;;;4960594;28;20328;-82
2024/01/22 03:28:24;;;;;;;1.73;1.63;;;20.80;60.60;;;;;;4958586;28;20205;-81
2024/01/22 03:30:50;;;;;;;4.15;1.88;;;20.80;60.60;;;;;;4963843;28;20475;-81
2024/01/22 03:33:18;;;;;;;2.95;1.40;;;20.80;60.80;;;;;;4967084;28;20316;-82
2024/01/22 03:35:45;;;;;;;1.75;1.23;;;20.80;60.60;;;;;;4968779;28;20209;-82
2024/01/22 03:38:12;;;;;;;2.20;1.60;;;20.80;60.60;;;;;;4964392;28;21146;-81
2024/01/22 03:40:39;;;;;;;1.38;1.10;;;20.80;60.60;;;;;;4965210;28;20198;-82
2024/01/22 03:43:05;;;;;;;2.78;1.48;;;20.80;60.60;;;;;;4972569;28;20212;-82
2024/01/22 03:45:32;;;;;;;1.90;1.23;;;20.80;60.60;;;;;;4968040;28;20801;-81
2024/01/22 03:47:59;;;;;;;1.40;1.30;;;20.80;60.60;;;;;;4968199;28;20201;-81
2024/01/22 03:50:27;;;;;;;1.35;1.10;;;20.80;60.60;;;;;;4967053;28;20210;-82
2024/01/22 03:52:53;;;;;;;2.65;1.42;;;20.80;61.10;;;;;;4972992;28;20684;-81
2024/01/22 03:55:20;;;;;;;2.20;1.40;;;20.80;60.70;;;;;;4965941;28;20267;-81
2024/01/22 03:57:47;;;;;;;2.20;1.55;;;20.80;60.60;;;;;;4967898;28;20205;-82
2024/01/22 04:00:14;;;;;;;2.40;1.20;;;20.80;60.70;;;;;;4963280;28;20209;-81
2024/01/22 04:02:41;;;;;;;2.20;1.10;;;20.80;60.60;;;;;;4962899;28;21176;-81
2024/01/22 04:05:09;;;;;;;2.97;1.40;;;20.80;60.60;;;;;;4967059;28;20205;-81
2024/01/22 04:07:37;;;;;;;1.90;1.20;;;20.80;60.60;;;;;;4962905;28;20580;-82
2024/01/22 04:10:04;;;;;;;2.55;1.70;;;20.70;60.60;;;;;;4964173;28;21189;-81
2024/01/22 04:12:30;;;;;;;1.77;1.20;;;20.70;60.60;;;;;;4966226;28;20689;-83
2024/01/22 04:14:57;;;;;;;2.88;1.20;;;20.70;60.60;;;;;;4963281;28;20461;-81
2024/01/22 04:17:24;;;;;;;2.30;1.30;;;20.70;60.50;;;;;;4962385;28;20208;-81
2024/01/22 04:19:50;;;;;;;1.90;1.30;;;20.70;60.50;;;;;;4965507;28;20209;-81
2024/01/22 04:22:17;;;;;;;1.60;1.45;;;20.70;60.60;;;;;;4967876;28;21501;-82
2024/01/22 04:24:45;;;;;;;2.50;1.60;;;20.70;60.60;;;;;;4963397;28;20214;-81
2024/01/22 04:27:12;;;;;;;2.75;1.70;;;20.70;60.60;;;;;;4965852;28;20218;-81
2024/01/22 04:29:38;;;;;;;1.60;1.10;;;20.70;60.50;;;;;;4966154;28;20202;-81
2024/01/22 04:32:06;;;;;;;2.20;1.55;;;20.70;60.60;;;;;;4961379;28;20228;-82
2024/01/22 04:34:35;;;;;;;1.60;1.40;;;20.70;60.60;;;;;;4966749;28;20210;-81
2024/01/22 04:37:02;;;;;;;1.98;1.40;;;20.70;60.60;;;;;;4962784;28;20219;-81
2024/01/22 04:39:29;;;;;;;1.40;1.27;;;20.70;60.60;;;;;;4962426;28;20197;-82
2024/01/22 04:41:57;;;;;;;1.10;1.00;;;20.70;60.60;;;;;;4964815;28;20201;-82
2024/01/22 04:44:24;;;;;;;2.38;1.30;;;20.70;60.60;;;;;;4963116;28;20305;-82
2024/01/22 04:46:50;;;;;;;1.45;1.25;;;20.60;60.40;;;;;;4965110;28;20214;-82
2024/01/22 04:49:17;;;;;;;2.13;1.42;;;20.60;60.60;;;;;;4966024;28;20229;-82
2024/01/22 04:51:44;;;;;;;2.25;1.67;;;20.60;60.40;;;;;;4960986;28;20212;-82
2024/01/22 04:54:11;;;;;;;2.13;1.70;;;20.60;60.50;;;;;;4960351;28;20744;-82
2024/01/22 04:56:41;;;;;;;2.25;1.38;;;20.60;60.50;;;;;;4962653;28;20212;-81
2024/01/22 04:59:09;;;;;;;1.95;1.00;;;20.60;60.60;;;;;;4963315;28;20205;-82
2024/01/22 05:01:36;;;;;;;1.88;1.52;;;20.60;60.50;;;;;;4961990;28;20212;-82
2024/01/22 05:04:03;;;;;;;1.60;1.10;;;20.60;60.60;;;;;;4965741;28;20597;-82
2024/01/22 05:06:30;;;;;;;2.20;1.65;;;20.60;60.50;;;;;;4964871;28;20556;-82
2024/01/22 05:08:57;;;;;;;1.75;1.42;;;20.60;60.50;;;;;;4959753;28;20216;-82
2024/01/22 05:11:24;;;;;;;1.73;1.23;;;20.60;60.50;;;;;;4964650;28;20204;-82
2024/01/22 05:13:52;;;;;;;1.40;1.30;;;20.60;60.50;;;;;;4965303;28;20684;-82
2024/01/22 05:16:20;;;;;;;1.65;1.23;;;20.60;60.60;;;;;;4963836;28;20207;-81
2024/01/22 05:18:48;;;;;;;2.05;1.20;;;20.60;60.40;;;;;;4965606;28;20212;-82
2024/01/22 05:21:15;;;;;;;1.73;1.20;;;20.60;60.50;;;;;;4965943;28;20214;-82
2024/01/22 05:23:42;;;;;;;1.52;1.02;;;20.60;60.50;;;;;;4966135;28;20860;-81
2024/01/22 05:26:09;;;;;;;1.70;1.40;;;20.60;60.60;;;;;;4964321;28;20672;-82
2024/01/22 05:28:36;;;;;;;1.73;1.30;;;20.60;60.60;;;;;;4966291;28;20557;-82
2024/01/22 05:31:04;;;;;;;2.03;1.17;;;20.60;60.60;;;;;;4968740;28;20208;-82
2024/01/22 05:33:32;;;;;;;1.27;1.17;;;20.60;60.60;;;;;;4964146;28;20713;-81
2024/01/22 05:35:59;;;;;;;1.58;1.35;;;20.60;60.60;;;;;;4965093;28;20287;-82
2024/01/22 05:38:26;;;;;;;1.67;1.10;;;20.60;60.60;;;;;;4965500;28;20256;-81
2024/01/22 05:40:54;;;;;;;1.88;1.25;;;20.60;60.60;;;;;;4971342;28;20214;-81
2024/01/22 05:43:20;;;;;;;2.55;1.20;;;20.60;60.60;;;;;;4971717;28;20798;-81
2024/01/22 05:45:47;;;;;;;3.38;1.73;;;20.60;60.60;;;;;;4970462;28;20208;-81
2024/01/22 05:48:14;;;;;;;1.88;1.10;;;20.60;60.60;;;;;;4965859;28;20605;-81
2024/01/22 05:50:42;;;;;;;1.40;1.20;;;20.50;60.40;;;;;;4964960;28;20206;-82
2024/01/22 05:53:09;;;;;;;1.30;1.15;;;20.50;60.50;;;;;;4960594;28;20279;-81
2024/01/22 05:55:36;;;;;;;1.40;1.25;;;20.50;60.50;;;;;;4964445;28;20201;-82
2024/01/22 05:58:03;;;;;;;4.32;1.10;;;20.50;60.60;;;;;;4965116;28;20209;-81
2024/01/22 06:00:30;;;;;;;1.70;1.40;;;20.50;60.60;;;;;;4961997;28;20205;-82
2024/01/22 06:02:59;;;;;;;1.70;1.35;;;20.60;61.00;;;;;;4961422;28;20201;-82
2024/01/22 06:05:26;;;;;;;1.40;1.15;;;20.60;61.40;;;;;;4966334;28;20205;-81
2024/01/22 06:07:54;;;;;;;1.70;1.40;;;20.60;61.70;;;;;;4966301;28;20279;-83
2024/01/22 06:10:21;;;;;;;2.25;1.40;;;20.60;61.60;;;;;;4963230;28;20207;-84
2024/01/22 06:12:48;;;;;;;2.10;1.20;;;20.60;61.70;;;;;;4960504;28;20791;-82
2024/01/22 06:15:15;;;;;;;3.22;1.27;;;20.60;61.80;;;;;;4963376;28;20325;-84
2024/01/22 06:17:41;;;;;;;1.10;1.00;;;20.60;62.00;;;;;;4963243;28;20217;-83
2024/01/22 06:20:09;;;;;;;2.75;1.30;;;20.60;61.90;;;;;;4964328;28;20688;-82
2024/01/22 06:22:36;;;;;;;1.40;1.20;;;20.60;62.40;;;;;;4960724;28;20197;-81
2024/01/22 06:25:05;;;;;;;1.38;1.13;;;20.60;62.90;;;;;;4966954;28;20220;-80
2024/01/22 06:27:32;;;;;;;2.30;1.10;;;20.60;62.50;;;;;;4967711;28;20201;-81
2024/01/22 06:29:59;;;;;;;2.08;1.33;;;20.60;62.50;;;;;;4971364;28;20623;-82
2024/01/22 06:32:26;;;;;;;1.50;1.38;;;20.60;62.70;;;;;;4965446;28;20634;-82
2024/01/22 06:34:53;;;;;;;2.47;1.10;;;20.60;62.90;;;;;;4968206;28;20206;-81
2024/01/22 06:37:21;;;;;;;2.20;1.35;;;20.60;62.80;;;;;;4963236;28;20201;-79
2024/01/22 06:39:48;;;;;;;2.40;1.42;;;20.60;63.00;;;;;;4962702;28;20215;-80
2024/01/22 06:42:17;;;;;;;4.05;1.35;;;20.60;62.90;;;;;;4964547;28;20216;-81
2024/01/22 06:44:44;;;;;;;6.13;1.25;;;20.60;63.20;;;;;;4959545;28;20648;-82
2024/01/22 06:47:10;;;;;;;2.97;1.33;;;20.60;63.20;;;;;;4959277;28;20209;-82
2024/01/22 06:49:37;;;;;;;1.27;1.00;;;20.60;63.10;;;;;;4958589;28;20209;-84
2024/01/22 06:52:04;;;;;;;2.00;1.33;;;20.60;63.70;;;;;;4961715;28;20204;-82
2024/01/22 06:54:31;;;;;;;15.30;1.45;;;20.60;63.50;;;;;;4957681;28;20209;-82
2024/01/22 06:56:58;;;;;;;14.95;1.45;;;20.70;63.80;;;;;;4963018;28;20205;-85
2024/01/22 06:59:26;;;;;;;1.90;1.17;;;20.70;63.90;;;;;;4965399;28;21047;-85
2024/01/22 07:01:53;;;;;;;1.98;1.30;;;20.70;64.00;;;;;;4959785;28;20794;-84
2024/01/22 07:04:20;;;;;;;2.67;1.00;;;20.70;63.90;;;;;;4962768;28;20288;-84
2024/01/22 07:06:48;;;;;;;2.15;1.33;;;20.70;64.10;;;;;;4963764;28;20209;-85
2024/01/22 07:09:16;;;;;;;1.52;1.25;;;20.70;64.00;;;;;;4956621;28;20217;-84
2024/01/22 07:11:43;;;;;;;1.58;1.10;;;20.70;64.00;;;;;;4964039;28;20224;-84
2024/01/22 07:14:10;;;;;;;1.83;1.10;;;20.70;64.00;;;;;;4962253;28;20221;-85
2024/01/22 07:16:38;;;;;;;1.35;1.17;;;20.70;64.00;;;;;;4961173;28;20205;-84
2024/01/22 07:19:05;;;;;;;1.30;1.00;;;20.80;64.20;;;;;;4963117;28;20212;-84
2024/01/22 07:21:31;;;;;;;1.20;0.80;;;20.80;64.10;;;;;;4964048;28;20212;-84
2024/01/22 07:24:00;;;;;;;1.10;0.90;;;20.80;64.10;;;;;;4963535;28;20221;-84
2024/01/22 07:26:26;;;;;;;1.65;1.13;;;20.70;63.90;;;;;;4962308;28;20830;-83
2024/01/22 07:28:53;;;;;;;1.63;0.93;;;20.80;64.10;;;;;;4962411;28;20205;-84
2024/01/22 07:31:20;;;;;;;2.78;1.48;;;20.80;64.10;;;;;;4961468;28;20218;-85
2024/01/22 07:33:48;;;;;;;1.63;0.90;;;20.80;64.30;;;;;;4960399;28;20230;-85
2024/01/22 07:36:16;;;;;;;3.42;1.30;;;20.90;64.50;;;;;;4964873;28;20460;-84
2024/01/22 07:38:43;;;;;;;1.50;1.25;;;20.90;64.30;;;;;;4959874;28;20844;-84
2024/01/22 07:41:10;;;;;;;1.30;0.90;;;20.90;64.50;;;;;;4962451;28;20205;-84
2024/01/22 07:43:37;;;;;;;1.42;1.00;;;20.90;64.50;;;;;;4959319;28;20197;-83
2024/01/22 07:46:03;;;;;;;1.98;1.15;;;21.00;64.50;;;;;;4962397;28;20205;-83
2024/01/22 07:48:30;;;;;;;2.20;0.90;;;21.00;64.60;;;;;;4960776;28;20212;-85
2024/01/22 07:50:58;;;;;;;1.60;1.20;;;21.00;64.40;;;;;;4962724;28;20620;-84
2024/01/22 07:53:25;;;;;;;1.50;1.13;;;21.10;64.50;;;;;;4960271;28;20225;-84
2024/01/22 07:55:52;;;;;;;1.10;0.80;;;21.10;64.50;;;;;;4962082;28;20207;-84
2024/01/22 07:58:19;;;;;;;1.35;1.10;;;21.10;64.50;;;;;;4962535;28;20682;-84
2024/01/22 08:00:46;;;;;;;1.20;0.93;;;21.20;64.60;;;;;;4960689;28;20197;-84
2024/01/22 08:03:12;;;;;;;1.60;0.90;;;21.20;64.60;;;;;;4959235;28;20469;-84
2024/01/22 08:05:40;;;;;;;1.20;1.08;;;21.20;64.50;;;;;;4967859;28;25391;-85
2024/01/22 08:08:09;;;;;;;1.20;0.90;;;21.30;64.50;;;;;;4960960;28;20204;-84
2024/01/22 08:10:36;;;;;;;1.80;1.10;;;21.30;64.50;;;;;;4963904;28;20456;-84
2024/01/22 08:13:03;;;;;;;1.30;1.00;;;21.30;64.50;;;;;;4951535;28;20480;-85
2024/01/22 08:15:30;;;;;;;1.53;1.10;;;21.30;64.50;;;;;;4960068;28;26829;-84
2024/01/22 08:17:56;;;;;;;2.60;0.87;;;21.40;64.50;;;;;;4957881;28;20471;-82
2024/01/22 08:20:24;;;;;;;1.42;0.80;;;21.40;64.30;;;;;;4960641;28;20458;-83
2024/01/22 08:22:51;;;;;;;1.40;1.13;;;21.50;64.40;;;;;;4969094;28;20545;-84
2024/01/22 08:25:26;;;;;;;1.10;0.73;;;21.50;64.40;;;;;;4970238;28;20523;-83
2024/01/22 08:27:56;;;;;;;5.13;1.10;;;21.50;64.40;;;;;;4968851;28;20508;-86
2024/01/22 08:30:23;;;;;;;1.30;1.00;;;21.50;63.30;;;;;;4965266;28;20448;-87
2024/01/22 08:32:51;;;;;;;1.40;1.10;;;21.40;61.50;;;;;;4970221;28;24550;-86
2024/01/22 08:35:20;;;;;;;2.90;1.23;;;21.40;61.00;;;;;;4971475;28;20306;-86
2024/01/22 08:48:24;;;;;;;1.40;1.03;;;21.40;60.30;;;;;;4927856;28;20459;-88
2024/01/22 08:51:37;;;;;;;1.20;1.10;;;22.20;61.30;;;;;;4926967;28;20462;-87
2024/01/22 08:57:03;;;;;;;1.30;0.90;;;21.40;61.20;;;;;;4961881;28;20574;-87
2024/01/22 08:59:37;;;;;;;2.47;1.00;;;21.40;61.80;;;;;;4966218;28;20455;-87
2024/01/22 09:05:20;;;;;;;2.63;0.97;;;21.50;60.40;;;;;;4964009;28;20452;-85
2024/01/22 09:07:48;;;;;;;1.60;0.93;;;21.00;59.80;;;;;;4964140;28;20575;-83
2024/01/22 09:10:15;;;;;;;1.47;1.00;;;21.50;61.00;;;;;;4961530;28;20488;-83
2024/01/22 09:12:42;;;;;;;1.70;1.10;;;21.60;61.20;;;;;;4962757;28;20469;-79
2024/01/22 09:15:10;;;;;;;1.50;1.10;;;21.60;61.20;;;;;;4965047;28;20480;-79
2024/01/22 09:17:40;;;;;;;3.00;1.30;;;21.60;60.70;;;;;;4963908;28;20557;-83
2024/01/22 09:20:08;;;;;;;1.40;1.07;;;21.60;61.00;;;;;;4969514;28;20452;-81
2024/01/22 09:22:37;;;;;;;1.20;0.80;;;21.60;61.00;;;;;;4967142;28;20467;-82
2024/01/22 09:25:05;;;;;;;1.20;0.90;;;21.60;61.10;;;;;;4968078;28;20468;-82
2024/01/22 09:27:31;;;;;;;2.27;0.97;;;21.70;61.40;;;;;;4965206;28;20472;-81
2024/01/22 09:29:59;;;;;;;4.47;1.17;;;21.70;61.40;;;;;;4963765;28;20468;-80
2024/01/22 09:32:26;;;;;;;1.30;0.90;;;21.70;61.60;;;;;;4966691;28;20480;-82
2024/01/22 09:34:52;;;;;;;2.73;2.53;;;21.70;61.60;;;;;;4969790;28;20589;-79
2024/01/22 09:37:19;;;;;;;4.00;0.90;;;21.70;61.70;;;;;;4969797;28;20477;-79
2024/01/22 09:39:49;;;;;;;2.27;1.30;;;21.70;61.70;;;;;;4967028;28;20463;-78
2024/01/22 09:42:16;;;;;;;2.20;1.07;;;21.70;61.70;;;;;;4966198;28;20492;-79
2024/01/22 09:44:45;;;;;;;2.23;1.40;;;21.70;61.60;;;;;;4965413;28;20461;-81
2024/01/22 09:47:12;;;;;;;2.97;0.90;;;21.70;61.60;;;;;;4963959;28;20959;-79
2024/01/22 09:49:39;;;;;;;2.20;0.90;;;21.70;61.60;;;;;;4969852;28;20474;-79
2024/01/22 09:52:09;;;;;;;1.40;1.00;;;21.70;61.60;;;;;;4965867;28;20495;-79
2024/01/22 09:54:36;;;;;;;2.30;1.10;;;21.70;61.50;;;;;;4964901;28;20487;-81
2024/01/22 09:57:08;;;;;;;3.10;1.10;;;21.70;61.50;;;;;;4968442;28;20470;-78
2024/01/22 09:59:36;;;;;;;1.47;0.90;;;21.70;61.40;;;;;;4964614;28;20461;-82
2024/01/22 10:02:03;;;;;;;5.50;1.00;;;21.70;61.50;;;;;;4961688;28;21046;-79
2024/01/22 10:04:30;;;;;;;2.83;1.00;;;21.70;61.40;;;;;;4963092;28;20804;-81
2024/01/22 10:06:57;;;;;;;2.10;0.80;;;21.70;61.40;;;;;;4964471;28;20839;-79
2024/01/22 10:09:23;;;;;;;3.20;0.90;;;21.70;61.40;;;;;;4957980;28;20205;-81
2024/01/22 10:11:50;;;;;;;1.30;0.90;;;21.70;61.30;;;;;;4959185;28;20965;-81
2024/01/22 10:14:29;;;;;;;3.28;0.80;;;21.70;61.30;;;;;;4962757;28;20487;-78
2024/01/22 10:16:56;;;;;;;1.20;0.90;;;21.70;61.30;;;;;;4960647;28;20196;-79
2024/01/22 10:19:26;;;;;;;1.40;0.97;;;21.60;61.30;;;;;;4966302;28;20472;-81
2024/01/22 10:22:01;;;;;;;1.67;0.90;;;21.60;61.10;;;;;;4969214;28;20516;-80
2024/01/22 10:24:29;;;;;;;1.35;0.90;;;21.60;61.20;;;;;;4966352;28;20458;-80
2024/01/22 10:27:00;;;;;;;1.33;0.90;;;21.60;61.30;;;;;;4970435;28;29653;-81
2024/01/22 10:29:29;;;;;;;1.05;0.80;;;21.60;61.20;;;;;;4963407;28;20471;-81
2024/01/22 10:31:56;;;;;;;1.13;0.85;;;21.60;61.30;;;;;;4966503;28;20306;-80
2024/01/22 10:34:24;;;;;;;1.10;0.80;;;21.60;61.40;;;;;;4971903;28;20221;-79
2024/01/22 10:37:07;;;;;;;2.00;0.88;;;21.60;61.50;;;;;;4971670;28;20207;-79
2024/01/22 10:39:34;;;;;;;1.60;1.00;;;21.60;61.50;;;;;;4970091;28;20197;-80
2024/01/22 10:42:11;;;;;;;1.00;0.80;;;21.60;61.50;;;;;;4965806;28;20460;-79
2024/01/22 10:44:41;;;;;;;1.00;0.80;;;21.60;61.40;;;;;;4969512;28;20496;-80
2024/01/22 10:47:09;;;;;;;1.10;0.80;;;21.60;61.50;;;;;;4941418;28;20460;-80
2024/01/22 10:49:36;;;;;;;1.60;1.03;;;21.60;61.50;;;;;;4964539;28;20240;-79
2024/01/22 10:52:05;;;;;;;1.30;0.85;;;21.70;61.60;;;;;;4961539;28;20460;-82
2024/01/22 10:54:32;;;;;;;1.67;0.90;;;21.60;61.50;;;;;;4963652;28;20223;-80
2024/01/22 10:57:03;;;;;;;1.23;0.80;;;21.60;61.50;;;;;;4965820;28;20920;-80
2024/01/22 10:59:34;;;;;;;1.10;0.90;;;21.60;61.50;;;;;;4964230;28;20666;-79
2024/01/22 11:02:03;;;;;;;1.00;0.80;;;21.60;61.50;;;;;;4963429;28;20201;-80
2024/01/22 11:04:34;;;;;;;1.13;0.90;;;21.60;61.50;;;;;;4962745;28;20464;-78
2024/01/22 11:07:02;;;;;;;1.43;0.97;;;21.60;61.50;;;;;;4962459;28;20966;-81
2024/01/22 11:09:32;;;;;;;1.27;1.17;;;21.60;61.50;;;;;;4960163;28;20467;-80
2024/01/22 11:12:04;;;;;;;1.20;0.90;;;21.60;61.50;;;;;;4964681;28;20468;-80
2024/01/22 11:14:32;;;;;;;2.07;1.00;;;21.60;61.50;;;;;;4969648;28;20472;-79
2024/01/22 11:16:59;;;;;;;1.30;0.80;;;21.60;61.50;;;;;;4963514;28;20464;-79
2024/01/22 11:19:27;;;;;;;1.30;0.80;;;21.60;61.50;;;;;;4969084;28;20543;-80
2024/01/22 11:21:54;;;;;;;1.20;1.00;;;21.60;61.50;;;;;;4968608;28;20495;-80
2024/01/22 11:24:22;;;;;;;1.20;0.90;;;21.60;61.60;;;;;;4972066;28;20698;-79
2024/01/22 11:27:03;;;;;;;1.27;0.93;;;21.60;62.50;;;;;;4968442;28;22445;-81
2024/01/22 11:29:32;;;;;;;3.67;1.27;;;21.60;61.60;;;;;;4963702;28;20467;-79
2024/01/22 11:32:24;;;;;;;1.10;0.70;;;21.60;61.60;;;;;;4964898;28;20474;-79
2024/01/22 11:34:53;;;;;;;1.50;1.10;;;21.60;61.60;;;;;;4967056;28;20472;-80
2024/01/22 11:37:37;;;;;;;1.10;0.80;;;21.60;61.70;;;;;;4965855;28;20476;-82
2024/01/22 11:40:06;;;;;;;0.98;0.75;;;21.60;62.50;;;;;;4965108;28;20809;-81
2024/01/22 11:42:33;;;;;;;1.30;1.00;;;21.60;61.60;;;;;;4968150;28;20197;-80
2024/01/22 11:45:12;;;;;;;2.35;1.05;;;21.50;61.50;;;;;;4966061;28;20206;-80
2024/01/22 11:47:39;;;;;;;6.03;1.17;;;21.60;61.60;;;;;;4967482;28;20201;-80
2024/01/22 11:50:08;;;;;;;1.27;0.90;;;21.50;61.70;;;;;;4967181;28;20292;-79
2024/01/22 11:52:38;;;;;;;3.58;1.30;;;21.50;61.70;;;;;;4963184;28;20205;-83
2024/01/22 11:55:06;;;;;;;1.53;1.00;;;21.40;61.90;;;;;;4950500;28;20226;-84
2024/01/22 11:57:36;;;;;;;1.40;0.63;;;21.50;62.10;;;;;;4963875;28;20492;-85
2024/01/22 12:00:06;;;;;;;1.33;0.90;;;21.50;62.40;;;;;;4964369;28;20577;-85
2024/01/22 12:02:33;;;;;;;1.80;1.00;;;21.50;62.60;;;;;;4965583;28;20815;-86
2024/01/22 12:05:06;;;;;;;1.53;0.77;;;21.50;62.80;;;;;;4969237;28;20492;-85
2024/01/22 12:07:35;;;;;;;3.90;1.00;;;21.50;62.90;;;;;;4967587;28;20451;-86
2024/01/22 12:10:02;;;;;;;3.67;1.40;;;21.50;63.30;;;;;;4968988;28;20460;-86
2024/01/22 12:12:29;;;;;;;1.00;0.90;;;21.60;63.50;;;;;;4967149;28;20866;-85
2024/01/22 12:14:57;;;;;;;1.57;1.00;;;21.60;63.50;;;;;;4963611;28;20741;-87
2024/01/22 12:17:24;;;;;;;2.50;1.07;;;21.60;63.50;;;;;;4963688;28;20461;-86
2024/01/22 12:19:54;;;;;;;2.50;0.90;;;21.70;63.70;;;;;;4964851;28;20464;-85
2024/01/22 12:22:23;;;;;;;2.90;1.10;;;21.70;63.80;;;;;;4972067;28;20474;-86
2024/01/22 12:25:08;;;;;;;1.65;1.02;;;21.70;63.80;;;;;;4972039;28;21511;-86
2024/01/22 12:27:36;;;;;;;2.30;1.73;;;21.70;63.70;;;;;;4970427;28;20229;-88
2024/01/22 12:30:05;;;;;;;3.80;1.23;;;21.70;63.80;;;;;;4972134;28;20556;-86
2024/01/22 12:32:32;;;;;;;3.07;0.90;;;21.80;64.00;;;;;;4971323;28;20463;-85
2024/01/22 12:34:59;;;;;;;1.97;1.07;;;21.80;63.90;;;;;;4971346;28;20486;-85
2024/01/22 12:37:29;;;;;;;1.63;0.97;;;21.80;63.90;;;;;;4970659;28;20475;-88
2024/01/22 12:40:14;;;;;;;2.33;1.07;;;21.80;63.90;;;;;;4975201;28;20453;-88
2024/01/22 12:42:42;;;;;;;4.57;1.20;;;21.90;64.00;;;;;;4973873;28;20543;-87
2024/01/22 12:45:21;;;;;;;1.50;0.90;;;21.90;64.00;;;;;;4971594;28;20455;-87
2024/01/22 12:47:49;;;;;;;2.03;0.90;;;21.90;64.00;;;;;;4969237;28;20811;-88
2024/01/22 12:50:18;;;;;;;1.30;1.00;;;21.90;64.00;;;;;;4971133;28;20468;-89
2024/01/22 12:52:45;;;;;;;1.73;0.90;;;21.90;64.00;;;;;;4968901;28;20455;-87
2024/01/22 12:55:15;;;;;;;1.13;0.83;;;22.00;64.30;;;;;;4969121;28;20476;-85
2024/01/22 12:57:43;;;;;;;1.40;0.90;;;21.90;63.80;;;;;;4973538;28;20602;-87
2024/01/22 13:00:11;;;;;;;2.93;1.00;;;21.90;63.80;;;;;;4971462;28;20518;-85
2024/01/22 13:02:38;;;;;;;1.13;0.80;;;21.90;63.90;;;;;;4964659;28;20460;-86
2024/01/22 13:05:06;;;;;;;2.00;0.90;;;22.00;64.00;;;;;;4968598;28;20463;-83
2024/01/22 13:07:33;;;;;;;1.57;1.10;;;22.00;64.00;;;;;;4964417;28;20460;-86